Time;durP1;ratioP1;P1;durP2;ratioP2;P2;SDS_P1;SDS_P2;PMS_P1;PMS_P2;Temp;Humidity;BMP_temperature;BMP_pressure;BME280_temperature;BME280_humidity;BME280_pressure;Samples;Min_cycle;Max_cycle;Signal;HPM_P1;HPM_P2
2022/12/04 00:01:25;;;;;;;25.17;8.80;;;5.60;99.90;;;;;;5054400;28;20185;-57
2022/12/04 00:03:53;;;;;;;24.83;8.70;;;5.30;99.90;;;;;;5054070;28;20204;-57
2022/12/04 00:06:20;;;;;;;19.13;8.90;;;5.60;99.90;;;;;;5054274;28;20174;-57
2022/12/04 00:08:46;;;;;;;19.87;8.80;;;5.00;99.90;;;;;;5054277;28;20185;-57
2022/12/04 00:11:14;;;;;;;23.60;8.37;;;5.40;99.90;;;;;;5054025;28;20181;-57
2022/12/04 00:13:41;;;;;;;21.73;8.17;;;5.90;99.90;;;;;;5054049;28;20169;-57
2022/12/04 00:16:09;;;;;;;19.10;8.20;;;5.50;99.90;;;;;;5054057;28;20187;-56
2022/12/04 00:18:36;;;;;;;19.37;8.10;;;5.30;99.90;;;;;;5053427;28;20260;-57
2022/12/04 00:21:07;;;;;;;21.23;8.20;;;5.10;99.90;;;;;;5053666;28;20178;-58
2022/12/04 00:23:34;;;;;;;20.77;8.23;;;5.50;99.90;;;;;;5052880;28;20227;-59
2022/12/04 00:26:01;;;;;;;20.43;8.40;;;5.30;99.90;;;;;;5052049;28;20188;-56
2022/12/04 00:28:27;;;;;;;20.33;8.17;;;5.10;99.90;;;;;;5040453;28;20672;-57
2022/12/04 00:30:53;;;;;;;23.00;7.90;;;;;;;;;;5040660;28;20193;-57
2022/12/04 00:33:19;;;;;;;16.00;8.10;;;5.20;99.90;;;;;;5053175;28;20251;-57
2022/12/04 00:35:44;;;;;;;16.63;8.10;;;5.10;99.90;;;;;;5052777;28;20652;-58
2022/12/04 00:38:10;;;;;;;17.63;7.67;;;5.20;99.90;;;;;;5040027;28;20177;-58
2022/12/04 00:40:35;;;;;;;18.67;8.20;;;5.20;99.90;;;;;;5050056;28;20287;-58
2022/12/04 00:43:01;;;;;;;22.23;8.37;;;5.00;99.90;;;;;;5053209;28;20184;-58
2022/12/04 00:45:27;;;;;;;17.80;7.87;;;;;;;;;;5053170;28;20223;-58
2022/12/04 00:47:54;;;;;;;20.10;8.03;;;5.10;99.90;;;;;;5044204;28;20209;-57
2022/12/04 00:50:20;;;;;;;20.47;8.53;;;4.80;99.90;;;;;;5052874;28;20604;-58
2022/12/04 00:52:45;;;;;;;19.27;8.47;;;4.90;99.90;;;;;;5052742;28;20685;-58
2022/12/04 00:55:11;;;;;;;20.47;8.33;;;5.00;99.90;;;;;;5049801;28;20176;-58
2022/12/04 00:57:37;;;;;;;20.13;8.13;;;4.90;99.90;;;;;;5053232;28;20174;-58
2022/12/04 01:00:04;;;;;;;20.70;7.73;;;4.90;99.90;;;;;;5040835;28;20178;-58
2022/12/04 01:02:29;;;;;;;20.30;8.67;;;5.40;99.90;;;;;;5033211;28;20170;-58
2022/12/04 01:04:55;;;;;;;25.53;8.07;;;5.10;99.90;;;;;;5033130;28;20551;-58
2022/12/04 01:07:20;;;;;;;19.00;8.20;;;5.20;99.90;;;;;;5033120;28;20173;-58
2022/12/04 01:09:46;;;;;;;26.33;8.03;;;5.10;99.90;;;;;;5033145;28;20174;-57
2022/12/04 01:12:12;;;;;;;17.93;7.73;;;5.00;99.90;;;;;;5045066;28;20666;-58
2022/12/04 01:14:37;;;;;;;25.17;8.80;;;5.30;99.90;;;;;;5053055;28;20295;-58
2022/12/04 01:17:03;;;;;;;29.97;8.00;;;5.20;99.90;;;;;;5052793;28;20192;-58
2022/12/04 01:19:28;;;;;;;23.43;8.73;;;5.30;99.90;;;;;;5052780;28;20181;-57
2022/12/04 01:21:54;;;;;;;17.80;7.90;;;6.30;99.90;;;;;;5052793;28;20222;-58
2022/12/04 01:24:20;;;;;;;22.90;8.00;;;5.50;99.90;;;;;;5052732;28;20215;-58
2022/12/04 01:26:45;;;;;;;22.50;7.77;;;5.10;99.90;;;;;;5049011;28;20173;-58
2022/12/04 01:29:11;;;;;;;19.17;8.57;;;5.50;99.90;;;;;;5048555;28;20180;-58
2022/12/04 01:31:37;;;;;;;19.10;7.87;;;5.50;99.90;;;;;;5052343;28;20184;-58
2022/12/04 01:34:03;;;;;;;27.90;8.50;;;5.50;99.90;;;;;;5041824;28;20185;-58
2022/12/04 01:36:28;;;;;;;21.50;7.97;;;5.30;99.90;;;;;;5034398;28;20174;-58
2022/12/04 01:38:54;;;;;;;17.90;7.73;;;5.30;99.90;;;;;;5050732;28;20537;-58
2022/12/04 01:41:26;;;;;;;18.23;6.90;;;5.30;99.90;;;;;;5050859;28;20185;-57
2022/12/04 01:44:18;;;;;;;22.73;8.13;;;5.30;99.90;;;;;;5049698;28;20209;-58
2022/12/04 01:46:46;;;;;;;22.73;7.27;;;5.20;99.90;;;;;;5049346;28;20196;-58
2022/12/04 01:49:16;;;;;;;14.97;6.93;;;5.60;99.90;;;;;;5050716;28;20200;-57
2022/12/04 01:51:48;;;;;;;17.80;7.30;;;5.40;99.90;;;;;;5044059;28;20272;-58
2022/12/04 01:54:27;;;;;;;14.97;6.70;;;5.40;99.90;;;;;;5051773;28;20636;-57
2022/12/04 01:57:02;;;;;;;21.93;7.40;;;5.40;99.90;;;;;;5042892;28;20185;-58
2022/12/04 01:59:32;;;;;;;15.67;6.60;;;5.40;99.90;;;;;;5050108;28;20173;-57
2022/12/04 02:02:10;;;;;;;16.03;6.63;;;5.50;99.90;;;;;;5049670;28;20180;-57
2022/12/04 02:04:39;;;;;;;20.93;6.73;;;5.20;99.90;;;;;;5051740;28;20291;-57
2022/12/04 02:07:04;;;;;;;12.83;6.27;;;5.30;99.90;;;;;;5051858;28;20172;-57
2022/12/04 02:09:31;;;;;;;15.57;6.77;;;5.20;99.90;;;;;;5051828;28;20181;-57
2022/12/04 02:12:11;;;;;;;18.53;7.10;;;4.90;99.90;;;;;;5051705;28;20173;-57
2022/12/04 02:15:03;;;;;;;15.23;6.27;;;4.90;99.90;;;;;;5051693;28;20192;-57
2022/12/04 02:17:35;;;;;;;16.43;7.20;;;4.90;99.90;;;;;;5050744;28;20185;-57
2022/12/04 02:20:16;;;;;;;18.50;7.00;;;4.90;99.90;;;;;;5051460;28;20181;-57
2022/12/04 02:23:19;;;;;;;16.37;6.77;;;4.70;99.90;;;;;;5051531;28;20203;-57
2022/12/04 02:25:56;;;;;;;19.93;6.60;;;4.70;99.90;;;;;;5051389;28;20215;-57
2022/12/04 02:28:31;;;;;;;15.13;6.47;;;4.80;99.90;;;;;;5051281;28;20616;-58
2022/12/04 02:30:59;;;;;;;17.33;6.37;;;4.80;99.90;;;;;;5051003;28;20546;-57
2022/12/04 02:33:35;;;;;;;21.00;6.80;;;4.90;99.90;;;;;;5050719;28;20217;-57
2022/12/04 02:36:12;;;;;;;20.37;6.83;;;4.70;99.90;;;;;;5031511;28;20378;-57
2022/12/04 02:38:55;;;;;;;16.77;6.60;;;4.60;99.90;;;;;;5042087;28;20165;-57
2022/12/04 02:41:29;;;;;;;18.67;6.73;;;5.20;99.90;;;;;;5031459;28;20178;-57
2022/12/04 02:44:06;;;;;;;25.37;7.07;;;4.40;99.90;;;;;;5044929;28;20236;-57
2022/12/04 02:46:42;;;;;;;20.30;7.70;;;4.40;99.90;;;;;;5032710;28;20195;-58
2022/12/04 02:49:13;;;;;;;16.40;7.00;;;4.60;99.90;;;;;;5037634;28;20185;-58
2022/12/04 02:51:40;;;;;;;22.57;7.20;;;5.10;99.90;;;;;;5042486;28;20231;-58
2022/12/04 02:54:28;;;;;;;16.67;6.73;;;4.50;99.90;;;;;;5048155;28;20185;-57
2022/12/04 02:56:57;;;;;;;22.67;7.40;;;4.30;99.90;;;;;;5035713;28;20260;-57
2022/12/04 02:59:29;;;;;;;18.33;8.40;;;4.40;99.90;;;;;;5043740;28;20178;-57
2022/12/04 03:01:57;;;;;;;21.43;8.07;;;4.40;99.90;;;;;;5043341;28;20648;-57
2022/12/04 03:04:26;;;;;;;18.97;7.40;;;4.20;99.90;;;;;;5030129;28;20224;-57
2022/12/04 03:07:01;;;;;;;20.17;7.93;;;4.10;99.90;;;;;;5013710;28;20185;-57
2022/12/04 03:09:35;;;;;;;24.97;8.80;;;3.90;99.90;;;;;;5030962;28;20678;-57
2022/12/04 03:12:11;;;;;;;21.57;8.37;;;4.10;99.90;;;;;;5031169;28;20504;-57
2022/12/04 03:14:49;;;;;;;22.37;8.80;;;4.10;99.90;;;;;;5040482;28;20188;-57
2022/12/04 03:17:20;;;;;;;23.60;8.87;;;3.70;99.90;;;;;;5050686;28;20682;-57
2022/12/04 03:19:51;;;;;;;17.20;8.50;;;5.10;99.90;;;;;;5050690;28;20161;-57
2022/12/04 03:22:19;;;;;;;20.27;8.97;;;3.80;99.90;;;;;;5050814;28;20189;-57
2022/12/04 03:24:50;;;;;;;21.93;8.50;;;4.20;99.90;;;;;;5050793;28;20247;-57
2022/12/04 03:27:24;;;;;;;24.50;9.03;;;4.00;99.90;;;;;;5049415;28;20183;-57
2022/12/04 03:30:15;;;;;;;22.37;8.90;;;4.00;99.90;;;;;;5048050;28;20981;-57
2022/12/04 03:32:46;;;;;;;20.60;8.90;;;3.90;99.90;;;;;;5046865;28;20225;-58
2022/12/04 03:35:22;;;;;;;24.97;9.10;;;3.70;99.90;;;;;;5044947;28;20185;-57
2022/12/04 03:37:53;;;;;;;23.10;8.77;;;3.80;99.90;;;;;;5050191;28;20179;-57
2022/12/04 03:40:25;;;;;;;21.10;9.27;;;3.90;99.90;;;;;;5049960;28;20189;-58
2022/12/04 03:42:58;;;;;;;22.83;8.80;;;3.80;99.90;;;;;;5050064;28;20177;-58
2022/12/04 03:45:27;;;;;;;23.90;9.33;;;2.10;99.90;;;;;;5050511;28;20299;-58
2022/12/04 03:48:10;;;;;;;20.17;9.43;;;4.30;99.90;;;;;;5048743;28;20181;-58
2022/12/04 03:50:37;;;;;;;24.20;8.93;;;4.40;99.90;;;;;;5048582;28;20185;-58
2022/12/04 03:53:37;;;;;;;19.87;9.13;;;4.30;99.90;;;;;;5050264;28;20281;-58
2022/12/04 03:56:14;;;;;;;23.10;9.13;;;4.50;99.90;;;;;;5022721;28;20248;-58
2022/12/04 03:58:44;;;;;;;21.63;9.00;;;4.50;99.90;;;;;;5038506;28;20276;-58
2022/12/04 04:01:12;;;;;;;19.60;9.40;;;4.50;99.90;;;;;;5042774;28;20189;-58
2022/12/04 04:03:45;;;;;;;19.77;8.40;;;4.40;99.90;;;;;;5047361;28;20208;-58
2022/12/04 04:06:16;;;;;;;21.73;8.67;;;4.30;99.90;;;;;;5030284;28;20247;-58
2022/12/04 04:08:46;;;;;;;18.47;8.80;;;4.50;99.90;;;;;;5043163;28;20189;-58
2022/12/04 04:11:27;;;;;;;20.10;8.80;;;4.70;99.90;;;;;;5030793;28;20186;-58
2022/12/04 04:25:23;;;;;;;18.63;8.77;;;4.50;99.90;;;;;;5048332;28;20966;-58
2022/12/04 04:27:53;;;;;;;25.63;8.97;;;4.40;99.90;;;;;;5047216;28;20185;-58
2022/12/04 04:30:19;;;;;;;17.73;8.77;;;4.60;99.90;;;;;;5053909;28;20177;-58
2022/12/04 04:32:56;;;;;;;15.03;8.03;;;5.00;99.90;;;;;;5031466;28;20225;-58
2022/12/04 04:35:33;;;;;;;18.27;8.10;;;4.60;99.90;;;;;;5014354;28;20174;-58
2022/12/04 04:38:08;;;;;;;18.37;7.77;;;4.70;99.90;;;;;;5028252;28;20173;-58
2022/12/04 04:40:42;;;;;;;27.37;8.50;;;4.80;99.90;;;;;;5033320;28;20638;-58
2022/12/04 04:43:17;;;;;;;19.03;8.00;;;4.60;99.90;;;;;;5033432;28;20170;-58
2022/12/04 04:46:10;;;;;;;17.30;8.13;;;4.80;99.90;;;;;;5033321;28;20675;-58
2022/12/04 04:48:43;;;;;;;17.87;9.00;;;4.70;99.90;;;;;;5023822;28;20629;-58
2022/12/04 04:51:09;;;;;;;22.13;8.10;;;4.60;99.90;;;;;;5021021;28;20182;-58
2022/12/04 04:53:44;;;;;;;21.07;8.90;;;4.50;99.90;;;;;;5032503;28;20182;-58
2022/12/04 04:56:11;;;;;;;18.67;8.77;;;4.60;99.90;;;;;;5032378;28;20190;-59
2022/12/04 04:58:36;;;;;;;21.00;9.93;;;4.60;99.90;;;;;;5029150;28;20178;-58
2022/12/04 05:01:09;;;;;;;23.87;9.07;;;4.40;99.90;;;;;;5030836;28;20202;-58
2022/12/04 05:03:35;;;;;;;25.90;8.70;;;4.80;99.90;;;;;;5031539;28;20214;-58
2022/12/04 05:06:01;;;;;;;20.53;8.93;;;5.60;99.90;;;;;;5032493;28;20592;-58
2022/12/04 05:08:26;;;;;;;21.93;9.13;;;4.50;99.90;;;;;;5033200;28;20236;-58
2022/12/04 05:10:52;;;;;;;18.90;8.53;;;4.70;99.90;;;;;;5033397;28;20178;-59
2022/12/04 05:13:19;;;;;;;19.30;8.50;;;4.80;99.90;;;;;;5033273;28;20324;-58
2022/12/04 05:15:54;;;;;;;22.00;8.83;;;4.60;99.90;;;;;;5033315;28;20174;-58
2022/12/04 05:18:19;;;;;;;18.73;8.57;;;4.70;99.90;;;;;;5033187;28;20192;-58
2022/12/04 05:20:45;;;;;;;18.90;9.00;;;4.60;99.90;;;;;;5014073;28;20593;-58
2022/12/04 05:23:10;;;;;;;16.83;8.47;;;5.00;99.90;;;;;;5012557;28;20203;-58
2022/12/04 05:25:36;;;;;;;23.03;8.33;;;4.60;99.90;;;;;;5012973;28;20260;-58
2022/12/04 05:28:01;;;;;;;18.13;8.53;;;4.60;99.90;;;;;;5013225;28;20684;-58
2022/12/04 05:30:27;;;;;;;16.37;7.87;;;4.60;99.90;;;;;;5032724;28;20186;-58
2022/12/04 05:32:53;;;;;;;22.20;9.17;;;;;;;;;;5044778;28;20306;-58
2022/12/04 05:35:19;;;;;;;22.83;8.63;;;4.70;99.90;;;;;;5052560;28;20537;-58
2022/12/04 05:37:45;;;;;;;20.63;8.53;;;;;;;;;;5052582;28;20172;-58
2022/12/04 05:40:10;;;;;;;18.67;8.50;;;4.70;99.90;;;;;;5052360;28;20193;-58
2022/12/04 05:42:36;;;;;;;17.73;8.43;;;4.90;99.90;;;;;;5052333;28;20254;-58
2022/12/04 05:45:02;;;;;;;18.40;7.77;;;4.70;99.90;;;;;;5052469;28;20205;-58
2022/12/04 05:47:27;;;;;;;15.73;7.87;;;4.50;99.90;;;;;;5051847;28;20654;-58
2022/12/04 05:49:53;;;;;;;19.97;8.00;;;4.80;99.90;;;;;;5044248;28;20630;-57
2022/12/04 05:52:19;;;;;;;18.93;7.63;;;5.00;99.90;;;;;;5052104;28;20180;-59
2022/12/04 05:54:44;;;;;;;15.63;6.93;;;4.70;99.90;;;;;;5052250;28;20185;-59
2022/12/04 05:57:10;;;;;;;13.10;6.93;;;4.80;99.90;;;;;;5051211;28;20248;-59
2022/12/04 05:59:36;;;;;;;22.27;8.57;;;4.70;99.90;;;;;;5052042;28;20189;-58
2022/12/04 06:02:02;;;;;;;16.93;8.20;;;4.80;99.90;;;;;;5040703;28;20186;-57
2022/12/04 06:04:28;;;;;;;14.97;7.87;;;;;;;;;;5041486;28;20270;-57
2022/12/04 06:06:54;;;;;;;17.83;7.40;;;5.00;99.90;;;;;;5048372;28;20173;-57
2022/12/04 06:09:20;;;;;;;18.10;7.33;;;4.70;99.90;;;;;;5036852;28;20173;-57
2022/12/04 06:11:45;;;;;;;15.27;7.63;;;4.80;99.90;;;;;;5043206;28;20177;-57
2022/12/04 06:14:14;;;;;;;15.10;7.23;;;4.80;99.90;;;;;;5051453;28;20177;-56
2022/12/04 06:16:42;;;;;;;15.90;7.47;;;4.70;99.90;;;;;;5051527;28;20185;-57
2022/12/04 06:19:11;;;;;;;18.83;7.83;;;4.70;99.90;;;;;;5040777;28;20254;-57
2022/12/04 06:21:39;;;;;;;13.73;7.53;;;4.60;99.90;;;;;;5032180;28;20206;-57
2022/12/04 06:24:07;;;;;;;19.93;8.13;;;4.70;99.90;;;;;;5047116;28;20293;-57
2022/12/04 06:26:32;;;;;;;13.47;7.13;;;5.20;99.90;;;;;;5033711;28;20631;-57
2022/12/04 06:28:59;;;;;;;17.47;8.07;;;4.70;99.90;;;;;;5051519;28;20204;-58
2022/12/04 06:31:26;;;;;;;17.30;7.43;;;4.60;99.90;;;;;;5039993;28;20670;-57
2022/12/04 06:33:53;;;;;;;21.73;7.97;;;4.60;99.90;;;;;;5040424;28;20189;-57
2022/12/04 06:36:20;;;;;;;19.13;7.77;;;4.70;99.90;;;;;;5045698;28;20177;-58
2022/12/04 06:38:47;;;;;;;20.87;8.07;;;4.90;99.90;;;;;;5051378;28;20188;-58
2022/12/04 06:41:15;;;;;;;21.60;9.33;;;6.60;99.90;;;;;;5034803;28;20181;-58
2022/12/04 06:43:41;;;;;;;17.53;7.70;;;4.80;99.90;;;;;;5030907;28;20213;-58
2022/12/04 06:46:15;;;;;;;17.27;8.07;;;4.60;99.90;;;;;;5039206;28;20263;-58
2022/12/04 06:48:41;;;;;;;16.37;7.90;;;4.70;99.90;;;;;;5050250;28;20197;-58
2022/12/04 06:51:10;;;;;;;14.23;7.43;;;4.80;99.90;;;;;;5028886;28;20217;-58
2022/12/04 06:53:37;;;;;;;22.43;7.87;;;4.70;99.90;;;;;;5035794;28;20526;-57
2022/12/04 06:56:06;;;;;;;15.83;7.57;;;5.00;99.90;;;;;;5051256;28;20280;-57
2022/12/04 06:58:33;;;;;;;18.17;8.37;;;4.80;99.90;;;;;;5043153;28;20196;-58
2022/12/04 07:00:59;;;;;;;18.87;8.90;;;4.50;99.90;;;;;;5046134;28;20651;-57
2022/12/04 07:03:25;;;;;;;18.43;8.37;;;4.60;99.90;;;;;;5049630;28;20550;-57
2022/12/04 07:05:51;;;;;;;22.07;8.27;;;4.50;99.90;;;;;;5031139;28;20313;-59
2022/12/04 07:08:17;;;;;;;19.50;9.00;;;4.90;99.90;;;;;;5031243;28;20205;-58
2022/12/04 07:10:43;;;;;;;22.23;9.03;;;4.80;99.90;;;;;;5031180;28;20253;-57
2022/12/04 07:13:09;;;;;;;22.70;9.53;;;4.90;99.90;;;;;;5031036;28;20185;-57
2022/12/04 07:15:36;;;;;;;19.97;8.97;;;3.50;99.90;;;;;;5032715;28;20174;-57
2022/12/04 07:18:03;;;;;;;22.57;9.70;;;4.90;99.90;;;;;;5050928;28;20169;-57
2022/12/04 07:20:29;;;;;;;21.13;9.33;;;4.80;99.90;;;;;;5051025;28;20272;-57
2022/12/04 07:22:55;;;;;;;23.67;10.43;;;;;;;;;;5051026;28;20178;-57
2022/12/04 07:25:21;;;;;;;19.77;9.60;;;4.80;99.90;;;;;;5050856;28;20240;-57
2022/12/04 07:27:47;;;;;;;19.57;9.20;;;4.90;99.90;;;;;;5033194;28;20244;-57
2022/12/04 07:30:12;;;;;;;25.20;10.27;;;4.70;99.90;;;;;;5048826;28;20279;-57
2022/12/04 07:32:38;;;;;;;21.57;9.47;;;4.80;99.90;;;;;;5048936;28;20590;-57
2022/12/04 07:35:04;;;;;;;21.07;10.00;;;5.10;99.90;;;;;;5050530;28;20177;-57
2022/12/04 07:37:30;;;;;;;23.00;9.77;;;4.60;99.90;;;;;;5036873;28;20178;-57
2022/12/04 07:39:56;;;;;;;21.93;9.83;;;4.70;99.90;;;;;;5046889;28;20185;-57
2022/12/04 07:42:22;;;;;;;21.10;10.23;;;5.00;99.90;;;;;;5039944;28;20550;-58
2022/12/04 07:44:47;;;;;;;26.93;10.53;;;4.70;99.90;;;;;;5048092;28;20201;-58
2022/12/04 07:47:13;;;;;;;27.87;10.47;;;4.80;99.90;;;;;;5050691;28;20261;-58
2022/12/04 07:49:39;;;;;;;23.30;10.43;;;4.60;99.90;;;;;;5050791;28;20185;-58
2022/12/04 07:52:05;;;;;;;22.17;10.73;;;4.60;99.90;;;;;;5048652;28;20566;-58
2022/12/04 07:54:31;;;;;;;24.33;10.90;;;4.90;99.90;;;;;;5054431;28;20219;-58
2022/12/04 07:56:57;;;;;;;25.90;10.03;;;;;;;;;;5051200;28;20256;-58
2022/12/04 07:59:22;;;;;;;27.37;10.93;;;4.60;99.90;;;;;;5049310;28;20182;-58
2022/12/04 08:01:48;;;;;;;24.60;11.53;;;4.60;99.90;;;;;;5034147;28;20636;-58
2022/12/04 08:04:14;;;;;;;24.93;11.07;;;4.90;99.90;;;;;;5047166;28;20304;-58
2022/12/04 08:06:40;;;;;;;25.70;10.50;;;4.80;99.90;;;;;;5048599;28;20212;-57
2022/12/04 08:09:06;;;;;;;27.27;10.77;;;4.90;99.90;;;;;;5040258;28;20767;-57
2022/12/04 08:11:33;;;;;;;25.50;10.70;;;4.60;99.90;;;;;;5052479;28;20690;-58
2022/12/04 08:14:01;;;;;;;27.50;11.00;;;4.90;99.90;;;;;;5053706;28;20182;-57
2022/12/04 08:16:29;;;;;;;27.67;12.33;;;4.70;99.90;;;;;;5052460;28;20261;-58
2022/12/04 08:18:55;;;;;;;34.50;12.40;;;;;;;;;;5042884;28;20638;-57
2022/12/04 08:21:24;;;;;;;27.53;13.00;;;5.00;99.90;;;;;;5053292;28;20264;-58
2022/12/04 08:23:51;;;;;;;25.57;12.07;;;4.80;99.90;;;;;;5042757;28;20186;-57
2022/12/04 08:26:18;;;;;;;32.03;12.00;;;5.70;99.90;;;;;;5034326;28;20192;-57
2022/12/04 08:28:44;;;;;;;32.27;12.93;;;4.60;99.90;;;;;;5046540;28;20169;-57
2022/12/04 08:31:13;;;;;;;28.20;12.37;;;4.60;99.90;;;;;;5039502;28;20193;-57
2022/12/04 08:33:40;;;;;;;29.50;12.87;;;4.70;99.90;;;;;;5045449;28;20220;-57
2022/12/04 08:36:07;;;;;;;34.80;13.33;;;4.60;99.90;;;;;;5037965;28;20659;-57
2022/12/04 08:38:33;;;;;;;31.83;13.63;;;4.70;99.90;;;;;;5036309;28;20309;-57
2022/12/04 08:41:03;;;;;;;31.23;13.60;;;4.70;99.90;;;;;;5052920;28;20275;-58
2022/12/04 08:43:29;;;;;;;29.17;13.57;;;4.60;99.90;;;;;;5052841;28;20173;-58
2022/12/04 08:46:00;;;;;;;33.37;13.57;;;4.60;99.90;;;;;;5035963;28;20228;-58
2022/12/04 08:48:26;;;;;;;33.30;14.23;;;4.90;99.90;;;;;;5052966;28;20173;-58
2022/12/04 08:50:52;;;;;;;35.40;14.07;;;4.70;99.90;;;;;;5051390;28;20188;-57
2022/12/04 08:53:19;;;;;;;30.03;13.23;;;4.70;99.90;;;;;;5045496;28;20185;-57
2022/12/04 08:55:45;;;;;;;28.30;12.83;;;4.40;99.90;;;;;;5051073;28;20169;-57
2022/12/04 08:58:10;;;;;;;31.07;13.67;;;4.70;99.90;;;;;;5040863;28;20174;-61
2022/12/04 09:00:36;;;;;;;33.63;14.00;;;4.90;99.90;;;;;;5053063;28;20192;-56
2022/12/04 09:03:02;;;;;;;36.93;14.70;;;4.80;99.90;;;;;;5053124;28;20169;-58
2022/12/04 09:05:29;;;;;;;32.47;14.23;;;4.90;99.90;;;;;;5053179;28;20208;-57
2022/12/04 09:07:54;;;;;;;31.17;13.93;;;4.80;99.90;;;;;;5053137;28;20174;-57
2022/12/04 09:10:20;;;;;;;31.83;14.30;;;4.50;99.90;;;;;;5053262;28;20659;-58
2022/12/04 09:12:46;;;;;;;27.23;12.93;;;4.80;99.90;;;;;;5053214;28;20250;-58
2022/12/04 09:15:11;;;;;;;31.83;14.00;;;4.70;99.90;;;;;;5053114;28;20285;-58
2022/12/04 09:17:37;;;;;;;31.37;13.13;;;4.80;99.90;;;;;;5053145;28;20711;-59
2022/12/04 09:20:05;;;;;;;32.17;13.87;;;4.80;99.90;;;;;;5053041;28;20169;-59
2022/12/04 09:22:32;;;;;;;32.83;13.73;;;4.90;99.90;;;;;;5050908;28;20181;-59
2022/12/04 09:24:58;;;;;;;30.63;12.87;;;4.80;99.90;;;;;;5052901;28;20209;-59
2022/12/04 09:27:23;;;;;;;31.47;13.83;;;4.60;99.90;;;;;;5052388;28;20889;-60
2022/12/04 09:29:49;;;;;;;35.67;13.67;;;;;;;;;;5034440;28;20667;-59
2022/12/04 09:32:15;;;;;;;28.57;14.23;;;4.80;99.90;;;;;;5052354;28;20217;-59
2022/12/04 09:34:40;;;;;;;30.03;13.57;;;4.50;99.90;;;;;;5052565;28;20248;-59
2022/12/04 09:37:06;;;;;;;37.00;14.10;;;4.40;99.90;;;;;;5046895;28;20282;-59
2022/12/04 09:39:31;;;;;;;33.63;15.03;;;5.20;99.90;;;;;;5032693;28;20220;-58
2022/12/04 09:42:18;;;;;;;34.27;15.03;;;4.90;99.90;;;;;;5032743;28;20198;-58
2022/12/04 09:44:58;;;;;;;35.77;14.77;;;5.20;99.90;;;;;;5032519;28;20292;-59
2022/12/04 09:47:37;;;;;;;35.03;14.50;;;5.10;99.90;;;;;;5032439;28;20177;-59
2022/12/04 09:50:25;;;;;;;35.03;15.50;;;5.20;99.90;;;;;;5031303;28;20177;-59
2022/12/04 09:53:02;;;;;;;37.40;15.37;;;5.30;99.90;;;;;;5030395;28;20170;-59
2022/12/04 09:55:37;;;;;;;33.73;15.30;;;5.30;99.90;;;;;;5030371;28;20218;-58
2022/12/04 09:58:09;;;;;;;39.63;16.67;;;5.00;99.90;;;;;;5030443;28;20192;-57
2022/12/04 10:00:40;;;;;;;41.53;17.27;;;5.10;99.90;;;;;;5047607;28;20173;-58
2022/12/04 10:03:13;;;;;;;39.00;15.43;;;5.50;99.90;;;;;;5050102;28;20261;-57
2022/12/04 10:05:57;;;;;;;37.10;17.17;;;5.30;99.90;;;;;;5051834;28;20227;-58
2022/12/04 10:08:28;;;;;;;36.67;16.07;;;5.20;99.90;;;;;;5052066;28;20484;-59
2022/12/04 10:10:59;;;;;;;34.93;15.53;;;5.20;99.90;;;;;;5046494;28;20287;-59
2022/12/04 10:13:59;;;;;;;41.60;16.03;;;5.30;99.90;;;;;;5051780;28;20651;-59
2022/12/04 10:16:46;;;;;;;35.03;15.47;;;5.10;99.90;;;;;;5044002;28;20283;-60
2022/12/04 10:19:19;;;;;;;38.97;15.93;;;5.20;99.90;;;;;;5051825;28;20643;-59
2022/12/04 10:22:01;;;;;;;40.63;16.50;;;5.30;99.90;;;;;;5051818;28;20169;-59
2022/12/04 10:24:42;;;;;;;34.30;15.40;;;5.30;99.90;;;;;;5051670;28;20209;-59
2022/12/04 10:27:31;;;;;;;40.90;16.20;;;5.20;99.90;;;;;;5051724;28;20187;-59
2022/12/04 10:30:23;;;;;;;44.33;16.27;;;4.90;99.90;;;;;;5051723;28;20173;-58
2022/12/04 10:32:58;;;;;;;33.67;15.07;;;5.20;99.90;;;;;;5050693;28;20275;-58
2022/12/04 10:35:28;;;;;;;33.53;14.63;;;5.30;99.90;;;;;;5051614;28;20267;-60
2022/12/04 10:38:02;;;;;;;35.77;15.23;;;5.30;99.90;;;;;;5051625;28;20185;-59
2022/12/04 10:40:36;;;;;;;32.40;15.87;;;5.40;99.90;;;;;;5051572;28;20177;-59
2022/12/04 10:43:13;;;;;;;38.83;16.80;;;5.50;99.90;;;;;;5051469;28;20533;-59
2022/12/04 10:45:38;;;;;;;35.30;15.77;;;5.20;99.90;;;;;;5043632;28;20225;-59
2022/12/04 10:48:06;;;;;;;37.73;16.20;;;5.60;99.90;;;;;;5051389;28;20169;-59
2022/12/04 10:50:32;;;;;;;35.43;15.47;;;5.90;99.90;;;;;;5051296;28;20187;-59
2022/12/04 10:52:58;;;;;;;42.37;15.43;;;5.30;99.90;;;;;;5051404;28;20177;-59
2022/12/04 10:55:29;;;;;;;31.67;15.50;;;5.20;99.90;;;;;;5051269;28;20219;-59
2022/12/04 10:57:55;;;;;;;44.63;16.57;;;5.10;99.90;;;;;;5049159;28;20169;-59
2022/12/04 11:00:26;;;;;;;32.97;14.63;;;5.30;99.90;;;;;;5051037;28;20602;-59
2022/12/04 11:02:54;;;;;;;38.67;15.40;;;5.00;99.90;;;;;;5051270;28;20192;-59
2022/12/04 11:05:31;;;;;;;32.63;16.10;;;;;;;;;;5051097;28;20216;-59
2022/12/04 11:07:59;;;;;;;34.83;15.27;;;5.30;99.90;;;;;;5051140;28;20171;-59
2022/12/04 11:10:37;;;;;;;33.07;15.80;;;5.60;99.90;;;;;;5051125;28;20746;-59
2022/12/04 11:13:17;;;;;;;37.57;15.50;;;5.50;99.90;;;;;;5051226;28;20232;-59
2022/12/04 11:15:49;;;;;;;37.93;16.30;;;5.40;99.90;;;;;;5050706;28;20169;-59
2022/12/04 11:18:24;;;;;;;41.17;16.47;;;5.40;99.90;;;;;;5050742;28;20191;-59
2022/12/04 11:21:11;;;;;;;38.03;16.27;;;5.50;99.90;;;;;;5050651;28;20177;-59
2022/12/04 11:23:49;;;;;;;37.27;16.50;;;5.40;99.90;;;;;;5032890;28;20203;-59
2022/12/04 11:26:17;;;;;;;34.27;15.70;;;5.10;99.90;;;;;;5050924;28;20220;-59
2022/12/04 11:28:53;;;;;;;40.57;16.27;;;5.40;99.90;;;;;;5050840;28;20161;-59
2022/12/04 11:31:21;;;;;;;38.37;15.70;;;5.10;99.90;;;;;;5050899;28;20761;-59
2022/12/04 11:33:58;;;;;;;34.93;15.70;;;5.30;99.90;;;;;;5050716;28;20221;-59
2022/12/04 11:36:24;;;;;;;38.70;16.10;;;;;;;;;;5050785;28;20173;-59
2022/12/04 11:38:53;;;;;;;40.03;15.97;;;5.60;99.90;;;;;;5048865;28;20205;-60
2022/12/04 11:41:27;;;;;;;40.43;16.53;;;5.60;99.90;;;;;;5045007;28;20737;-60
2022/12/04 11:43:54;;;;;;;38.03;16.57;;;5.50;99.90;;;;;;5050652;28;20218;-59
2022/12/04 11:46:25;;;;;;;38.70;16.53;;;5.60;99.90;;;;;;5050561;28;20277;-59
2022/12/04 11:48:51;;;;;;;37.93;15.07;;;5.70;99.90;;;;;;5050700;28;20264;-59
2022/12/04 11:51:27;;;;;;;33.00;16.60;;;5.60;99.90;;;;;;5050662;28;20216;-59
2022/12/04 11:53:58;;;;;;;39.43;15.47;;;5.80;99.90;;;;;;5050637;28;20211;-59
2022/12/04 11:56:32;;;;;;;36.63;16.17;;;5.80;99.90;;;;;;5050594;28;20178;-59
2022/12/04 11:59:23;;;;;;;37.30;15.30;;;5.90;99.90;;;;;;5050545;28;20169;-57
2022/12/04 12:02:24;;;;;;;36.67;16.13;;;5.90;99.90;;;;;;5050420;28;20177;-57
2022/12/04 12:05:05;;;;;;;32.20;15.33;;;5.80;99.90;;;;;;5050372;28;20205;-57
2022/12/04 12:07:50;;;;;;;40.63;17.37;;;5.90;99.90;;;;;;5050544;28;20169;-59
2022/12/04 12:10:37;;;;;;;36.97;15.20;;;5.80;99.90;;;;;;5050509;28;20215;-60
2022/12/04 12:13:40;;;;;;;41.30;16.03;;;6.00;99.90;;;;;;5050206;28;20169;-59
2022/12/04 12:16:09;;;;;;;34.63;14.70;;;5.90;99.90;;;;;;5050291;28;20169;-57
2022/12/04 12:18:53;;;;;;;42.00;16.57;;;5.80;99.90;;;;;;5050373;28;20177;-58
2022/12/04 12:21:18;;;;;;;33.43;16.20;;;5.90;99.90;;;;;;5032279;28;20188;-58
2022/12/04 12:24:10;;;;;;;35.60;16.57;;;6.00;99.90;;;;;;5032414;28;20170;-58
2022/12/04 12:26:47;;;;;;;34.63;16.90;;;5.70;99.90;;;;;;5050567;28;20636;-59
2022/12/04 12:29:41;;;;;;;35.07;16.97;;;5.70;99.90;;;;;;5050169;28;20170;-58
2022/12/04 12:32:27;;;;;;;34.47;15.83;;;6.00;99.90;;;;;;5050075;28;20217;-58
2022/12/04 12:34:54;;;;;;;35.77;16.70;;;5.80;99.90;;;;;;5046299;28;20247;-58
2022/12/04 12:37:51;;;;;;;34.77;16.67;;;5.80;99.90;;;;;;5053753;28;20165;-59
2022/12/04 12:40:38;;;;;;;37.73;16.77;;;5.90;99.90;;;;;;5033893;28;20200;-57
2022/12/04 12:43:04;;;;;;;35.90;16.90;;;;;;;;;;5053706;28;20173;-57
2022/12/04 12:45:45;;;;;;;36.60;17.40;;;5.80;99.90;;;;;;5053560;28;20296;-57
2022/12/04 12:48:34;;;;;;;40.10;17.60;;;5.70;99.90;;;;;;5047130;28;20197;-57
2022/12/04 12:51:10;;;;;;;44.83;17.00;;;5.80;99.90;;;;;;5033401;28;20648;-57
2022/12/04 12:53:41;;;;;;;37.13;16.83;;;5.80;99.90;;;;;;5015593;28;20170;-57
2022/12/04 12:56:09;;;;;;;43.73;20.10;;;6.00;99.90;;;;;;5033607;28;20198;-57
2022/12/04 12:58:49;;;;;;;40.03;18.50;;;5.70;99.90;;;;;;5015968;28;20728;-58
2022/12/04 13:01:27;;;;;;;41.80;18.90;;;5.90;99.90;;;;;;5033508;28;20193;-58
2022/12/04 13:04:37;;;;;;;41.87;19.70;;;6.00;99.90;;;;;;5033410;28;20174;-57
2022/12/04 13:07:17;;;;;;;41.63;18.13;;;5.90;99.90;;;;;;5030967;28;20674;-57
2022/12/04 13:10:03;;;;;;;40.67;18.37;;;5.90;99.90;;;;;;5033169;28;20182;-58
2022/12/04 13:12:42;;;;;;;39.97;19.67;;;5.80;99.90;;;;;;5033129;28;20185;-57
2022/12/04 13:15:18;;;;;;;38.60;18.97;;;6.20;99.90;;;;;;5033086;28;20170;-57
2022/12/04 13:17:46;;;;;;;39.33;19.23;;;6.00;99.90;;;;;;5051087;28;20212;-57